Time;durP1;ratioP1;P1;durP2;ratioP2;P2;SDS_P1;SDS_P2;PMS_P1;PMS_P2;Temp;Humidity;BMP_temperature;BMP_pressure;BME280_temperature;BME280_humidity;BME280_pressure;Samples;Min_cycle;Max_cycle;Signal;HPM_P1;HPM_P2
2022/04/27 00:01:32;;;;;;;;;16.00;14.50;;;;;10.22;55.78;102031.72;4969962;28;50055;-68
2022/04/27 00:03:57;;;;;;;;;13.25;12.25;;;;;9.99;55.82;101990.47;4970119;28;49966;-68
2022/04/27 00:06:23;;;;;;;;;14.00;12.00;;;;;10.11;56.09;102013.69;4972878;28;50382;-67
2022/04/27 00:08:48;;;;;;;;;11.50;11.50;;;;;10.15;55.85;102027.03;4972035;28;49799;-68
2022/04/27 00:11:14;;;;;;;;;11.25;9.00;;;;;10.15;55.82;102034.91;4973114;28;49834;-67
2022/04/27 00:13:39;;;;;;;;;18.75;18.25;;;;;10.00;55.73;102023.72;4971863;28;49828;-68
2022/04/27 00:16:05;;;;;;;;;15.00;11.00;;;;;10.09;56.05;102041.59;4972949;28;49937;-68
2022/04/27 00:18:30;;;;;;;;;16.50;15.50;;;;;9.88;56.65;102013.59;4972963;28;49837;-68
2022/04/27 00:20:56;;;;;;;;;13.00;10.50;;;;;9.88;55.98;102017.97;4973109;28;49759;-67
2022/04/27 00:23:25;;;;;;;;;14.50;13.50;;;;;10.06;56.72;102045.00;4973351;28;49928;-68
2022/04/27 00:25:50;;;;;;;;;15.25;15.00;;;;;10.08;56.17;102039.81;4972904;28;49978;-68
2022/04/27 00:28:15;;;;;;;;;14.00;12.75;;;;;9.92;56.94;102009.38;4972882;28;49818;-68
2022/04/27 00:30:41;;;;;;;;;14.00;12.75;;;;;9.87;56.56;102022.31;4972924;28;49774;-68
2022/04/27 00:33:06;;;;;;;;;20.00;19.00;;;;;9.96;56.79;102032.31;4972790;28;49896;-68
2022/04/27 00:35:32;;;;;;;;;15.00;14.25;;;;;9.96;56.19;102034.94;4991066;28;50213;-68
2022/04/27 00:37:57;;;;;;;;;14.75;14.00;;;;;9.95;56.89;102027.91;4994280;28;49858;-68
2022/04/27 00:40:23;;;;;;;;;15.25;14.25;;;;;10.01;56.67;102038.63;4994508;28;49782;-67
2022/04/27 00:42:48;;;;;;;;;13.00;13.00;;;;;9.88;56.79;102021.47;4994551;28;50059;-68
2022/04/27 00:45:13;;;;;;;;;15.00;14.00;;;;;9.67;56.99;101978.59;5012178;28;49769;-69
2022/04/27 00:47:39;;;;;;;;;16.00;13.50;;;;;9.61;56.45;101994.94;5011952;28;49670;-68
2022/04/27 00:50:05;;;;;;;;;14.75;13.75;;;;;9.74;57.07;102015.59;5011997;28;49855;-69
2022/04/27 00:52:32;;;;;;;;;16.00;14.00;;;;;9.85;56.62;102034.47;5011500;28;49989;-68
2022/04/27 00:54:57;;;;;;;;;18.25;14.75;;;;;9.84;57.44;102034.38;5010891;28;51014;-69
2022/04/27 00:57:24;;;;;;;;;14.75;14.75;;;;;9.83;57.14;102035.22;5011840;28;49733;-68
2022/04/27 00:59:49;;;;;;;;;18.75;13.50;;;;;9.51;57.18;101979.63;5011841;28;50085;-68
2022/04/27 01:02:16;;;;;;;;;20.25;18.25;;;;;9.79;57.83;102022.81;5011758;28;49748;-69
2022/04/27 01:09:53;;;;;;;;;12.00;11.25;;;;;9.74;57.74;102007.75;4918710;22;51195;-64
2022/04/27 01:12:18;;;;;;;;;18.25;15.75;;;;;9.83;57.50;102023.00;5031795;28;49840;-64
2022/04/27 01:14:48;;;;;;;;;16.75;14.00;;;;;9.83;57.97;102028.22;5030817;28;50458;-64
2022/04/27 01:17:14;;;;;;;;;19.75;18.25;;;;;9.71;57.87;102011.97;5031130;28;49707;-65
2022/04/27 01:19:39;;;;;;;;;20.00;19.00;;;;;9.80;57.67;102030.72;5031623;28;49878;-64
2022/04/27 01:22:06;;;;;;;;;19.75;17.75;;;;;9.71;57.98;102011.97;5012954;28;50004;-66
2022/04/27 01:24:31;;;;;;;;;20.25;20.00;;;;;9.73;57.64;102024.31;5031049;28;49910;-64
2022/04/27 01:26:57;;;;;;;;;16.00;14.50;;;;;9.63;58.18;102014.25;5030578;28;50117;-64
2022/04/27 01:29:23;;;;;;;;;20.25;17.00;;;;;9.70;58.03;102032.06;5031129;28;49674;-64
2022/04/27 01:31:49;;;;;;;;;17.00;13.25;;;;;9.69;57.59;102021.50;5031224;28;49883;-65
2022/04/27 01:34:15;;;;;;;;;16.00;16.00;;;;;9.59;57.57;102009.72;5030423;28;49961;-64
2022/04/27 01:36:41;;;;;;;;;23.75;19.00;;;;;9.56;58.48;102012.19;5030210;28;50152;-64
2022/04/27 01:39:06;;;;;;;;;19.00;14.50;;;;;9.60;59.16;102027.22;5030359;28;50025;-64
2022/04/27 01:41:33;;;;;;;;;21.25;15.75;;;;;9.56;59.16;102017.44;5031093;28;49900;-63
2022/04/27 01:43:59;;;;;;;;;15.50;13.50;;;;;9.59;58.89;102024.53;5030308;28;51106;-64
2022/04/27 01:46:26;;;;;;;;;19.25;16.75;;;;;9.46;59.59;102016.13;5030335;28;49921;-64
2022/04/27 01:48:51;;;;;;;;;21.25;18.50;;;;;9.50;59.84;102026.75;5030165;28;49774;-64
2022/04/27 01:51:18;;;;;;;;;21.50;19.75;;;;;9.29;59.07;101995.22;5030179;28;49978;-63
2022/04/27 01:56:28;;;;;;;;;16.75;16.25;;;;;9.35;59.42;102013.81;5024953;28;49769;-64
2022/04/27 01:58:54;;;;;;;;;18.00;15.25;;;;;9.27;60.16;102002.13;5030850;28;49829;-63
2022/04/27 02:01:21;;;;;;;;;17.00;16.25;;;;;9.25;60.40;102009.88;5029881;28;49776;-64
2022/04/27 02:03:47;;;;;;;;;18.25;18.25;;;;;9.31;59.80;102028.53;5030367;28;50608;-63
2022/04/27 02:06:16;;;;;;;;;20.00;19.00;;;;;9.25;61.13;102033.47;5030151;28;50013;-64
2022/04/27 02:08:42;;;;;;;;;17.75;16.00;;;;;8.68;61.42;101951.34;5023784;28;49981;-64
2022/04/27 02:11:07;;;;;;;;;19.50;18.75;;;;;9.21;61.88;102047.28;5023575;28;49742;-64
2022/04/27 02:13:33;;;;;;;;;21.25;18.25;;;;;9.22;60.92;102040.31;5012743;28;51735;-64
2022/04/27 02:16:00;;;;;;;;;22.25;18.25;;;;;9.17;61.91;102041.00;5030209;28;50040;-64
2022/04/27 02:18:26;;;;;;;;;23.00;19.75;;;;;9.18;62.20;102058.50;5029944;28;50021;-64
2022/04/27 02:20:52;;;;;;;;;23.50;23.50;;;;;9.05;62.72;102044.75;5030338;28;49693;-64
2022/04/27 02:23:20;;;;;;;;;26.25;24.75;;;;;9.11;62.39;102038.09;5029627;28;49682;-64
2022/04/27 02:25:45;;;;;;;;;29.25;24.75;;;;;9.07;62.31;102033.53;5012568;28;49792;-64
2022/04/27 02:28:11;;;;;;;;;25.00;24.00;;;;;8.98;62.92;102017.38;5029219;28;49686;-63
2022/04/27 02:30:36;;;;;;;;;26.00;20.50;;;;;9.01;63.79;102028.00;5029764;28;50040;-63
2022/04/27 02:33:02;;;;;;;;;27.25;21.75;;;;;9.01;63.71;102043.72;5030181;28;49938;-63
2022/04/27 02:35:28;;;;;;;;;17.50;16.00;;;;;8.80;63.34;102011.28;5027997;28;50001;-64
2022/04/27 02:37:53;;;;;;;;;23.75;23.75;;;;;8.91;64.50;102033.63;5029561;28;49832;-64
2022/04/27 02:40:18;;;;;;;;;28.00;26.00;;;;;8.88;65.01;102038.72;5029664;28;49892;-63
2022/04/27 02:42:44;;;;;;;;;21.00;18.50;;;;;8.78;65.54;102037.41;5030271;28;50992;-63
2022/04/27 02:45:10;;;;;;;;;30.50;24.50;;;;;8.70;65.17;102027.38;5030375;28;49759;-63
2022/04/27 02:47:35;;;;;;;;;20.50;20.50;;;;;8.75;65.70;102031.97;5030367;28;49943;-64
2022/04/27 02:52:48;;;;;;;;;18.75;18.75;;;;;8.74;66.34;102050.25;5029931;28;49737;-64
2022/04/27 02:55:13;;;;;;;;;26.75;24.50;;;;;8.70;65.84;102028.25;5012046;28;49808;-64
2022/04/27 02:57:39;;;;;;;;;29.50;28.50;;;;;8.63;66.44;102009.56;5029822;28;49832;-64
2022/04/27 03:00:05;;;;;;;;;29.00;25.25;;;;;8.69;66.40;102028.19;5012312;28;49883;-64
2022/04/27 03:02:31;;;;;;;;;31.75;27.75;;;;;8.71;66.40;102024.81;5012149;28;52690;-64
2022/04/27 03:04:56;;;;;;;;;24.25;21.50;;;;;8.44;66.39;101989.44;5030101;28;49910;-64
2022/04/27 03:07:21;;;;;;;;;26.75;22.50;;;;;8.52;66.69;102019.50;5030378;28;49737;-64
2022/04/27 03:09:47;;;;;;;;;32.75;29.00;;;;;8.50;66.70;101997.59;5029488;28;50179;-64
2022/04/27 03:12:13;;;;;;;;;32.25;28.25;;;;;8.56;66.84;102014.47;5029679;28;51296;-64
2022/04/27 03:14:38;;;;;;;;;41.50;31.50;;;;;8.64;67.11;102030.56;5030252;28;50160;-64
2022/04/27 03:17:03;;;;;;;;;31.25;27.00;;;;;8.64;67.90;102037.53;5029738;28;50178;-64
2022/04/27 03:19:29;;;;;;;;;36.25;30.50;;;;;8.52;68.36;102027.38;5030348;28;49785;-64
2022/04/27 03:21:55;;;;;;;;;30.00;28.75;;;;;8.49;68.37;102028.13;5030128;28;49659;-64
2022/04/27 03:24:20;;;;;;;;;30.00;26.75;;;;;8.55;67.83;102037.97;5030160;28;49972;-63
2022/04/27 03:26:47;;;;;;;;;35.50;28.00;;;;;8.45;68.31;102026.16;5030043;28;50117;-63
2022/04/27 03:29:15;;;;;;;;;29.00;27.00;;;;;8.49;68.62;102030.75;5030286;28;49776;-64
2022/04/27 03:31:41;;;;;;;;;30.75;28.25;;;;;8.53;68.23;102029.16;5029971;28;51631;-63
2022/04/27 03:34:07;;;;;;;;;34.75;29.50;;;;;8.54;68.58;102037.06;5029973;28;49696;-63
2022/04/27 03:36:32;;;;;;;;;26.50;24.00;;;;;8.38;68.04;102002.22;5030021;28;49987;-63
2022/04/27 03:38:59;;;;;;;;;26.50;22.50;;;;;8.46;68.95;102022.72;5030005;28;49773;-63
2022/04/27 03:41:26;;;;;;;;;32.75;30.50;;;;;8.43;68.96;102014.72;5032943;28;50112;-63
2022/04/27 03:43:52;;;;;;;;;29.50;28.75;;;;;8.40;69.09;102016.31;5033496;28;49797;-64
2022/04/27 03:46:19;;;;;;;;;35.75;32.75;;;;;8.36;69.62;102012.63;5032804;28;49820;-64
2022/04/27 03:48:46;;;;;;;;;33.25;33.25;;;;;8.38;69.96;102010.97;5032947;28;49658;-63
2022/04/27 03:51:12;;;;;;;;;30.75;30.75;;;;;8.27;69.94;101999.94;5015169;28;51255;-63
2022/04/27 03:53:38;;;;;;;;;38.00;36.00;;;;;8.30;69.70;102004.44;5032959;28;49855;-64
2022/04/27 03:56:05;;;;;;;;;33.75;32.25;;;;;8.35;70.82;102007.31;5033353;28;49734;-64
2022/04/27 03:58:31;;;;;;;;;40.00;35.50;;;;;7.78;70.40;101925.97;5033440;28;49867;-64
2022/04/27 04:00:56;;;;;;;;;34.25;33.25;;;;;8.25;70.82;102017.28;5032791;28;50767;-64
2022/04/27 04:03:22;;;;;;;;;31.00;29.50;;;;;8.16;70.63;102003.75;5032257;28;49618;-64
2022/04/27 04:05:48;;;;;;;;;35.25;34.00;;;;;8.32;71.28;102028.97;5032877;28;49829;-64
2022/04/27 04:08:13;;;;;;;;;30.75;30.75;;;;;8.18;71.54;102016.88;5027611;28;49834;-64
2022/04/27 04:10:39;;;;;;;;;35.75;32.25;;;;;8.14;71.01;102010.63;5031297;28;50693;-64
2022/04/27 04:13:04;;;;;;;;;37.50;30.50;;;;;8.18;71.99;102035.19;5032151;28;49625;-66
2022/04/27 04:15:30;;;;;;;;;33.75;32.50;;;;;8.11;72.30;102017.44;5032635;28;49671;-64
2022/04/27 04:17:56;;;;;;;;;33.50;28.00;;;;;8.00;72.11;102004.66;5033015;28;49615;-64
2022/04/27 04:20:22;;;;;;;;;30.75;29.75;;;;;8.09;71.40;102019.94;5032559;28;50668;-64
2022/04/27 04:22:48;;;;;;;;;33.25;33.25;;;;;8.17;72.19;102047.38;5032654;28;49698;-65
2022/04/27 04:30:44;;;;;;;;;33.00;28.25;;;;;8.11;71.96;102040.97;5028893;28;49707;-64
2022/04/27 04:33:09;;;;;;;;;44.50;36.25;;;;;7.99;72.47;102029.03;5034968;28;49904;-63
2022/04/27 04:35:36;;;;;;;;;36.25;33.75;;;;;8.09;72.53;102053.94;5032580;28;49729;-71
2022/04/27 04:38:04;;;;;;;;;36.25;34.50;;;;;7.95;73.28;102028.81;5032064;28;49857;-65
2022/04/27 04:40:30;;;;;;;;;35.75;30.75;;;;;7.79;73.13;102008.81;5033619;28;51140;-65
2022/04/27 04:42:56;;;;;;;;;36.50;30.75;;;;;7.97;73.10;102048.09;5045358;28;49880;-65
2022/04/27 04:45:23;;;;;;;;;36.50;34.25;;;;;7.94;72.90;102037.47;5047905;28;49652;-65
2022/04/27 04:47:49;;;;;;;;;37.50;35.75;;;;;7.99;72.96;102043.81;5026476;28;49326;-65
2022/04/27 04:50:15;;;;;;;;;38.00;35.50;;;;;8.04;73.40;102055.44;5031806;28;49946;-65
2022/04/27 04:52:41;;;;;;;;;43.25;37.75;;;;;7.81;72.84;102016.72;5034112;28;49613;-65
2022/04/27 04:55:07;;;;;;;;;41.75;35.25;;;;;8.03;72.96;102058.88;5036957;28;50093;-65
2022/04/27 04:57:32;;;;;;;;;46.25;39.50;;;;;7.98;73.68;102049.88;5038316;28;49597;-65
2022/04/27 04:59:58;;;;;;;;;35.50;35.50;;;;;7.98;72.62;102052.50;5049749;28;50187;-65
2022/04/27 05:02:24;;;;;;;;;45.25;40.00;;;;;7.65;73.13;101975.84;5031682;28;49418;-64
2022/04/27 05:04:50;;;;;;;;;38.75;35.75;;;;;8.00;73.38;102045.63;5042999;28;49766;-66
2022/04/27 05:07:18;;;;;;;;;40.50;31.50;;;;;7.90;72.90;102027.66;5032439;28;49729;-65
2022/04/27 05:09:44;;;;;;;;;45.75;38.50;;;;;7.96;72.54;102051.53;5034208;28;50014;-66
2022/04/27 05:12:10;;;;;;;;;40.75;37.00;;;;;8.19;73.09;102073.63;5011980;28;49793;-65
2022/04/27 05:14:36;;;;;;;;;44.25;36.75;;;;;7.96;73.52;102035.81;5043333;28;49445;-65
2022/04/27 05:17:02;;;;;;;;;33.00;32.25;;;;;7.94;74.01;102047.94;5042214;28;49599;-66
2022/04/27 05:19:27;;;;;;;;;35.25;32.25;;;;;8.10;73.87;102068.81;5030577;28;50169;-65
2022/04/27 05:21:53;;;;;;;;;38.50;34.25;;;;;8.08;73.42;102083.53;5019372;28;49701;-66
2022/04/27 05:24:18;;;;;;;;;39.75;35.75;;;;;7.91;73.56;102055.59;5016018;28;50007;-66
2022/04/27 05:26:44;;;;;;;;;44.75;37.25;;;;;7.91;74.35;102051.28;5030690;28;49827;-66
2022/04/27 05:32:00;;;;;;;;;39.00;35.25;;;;;7.96;74.43;102086.41;5035148;28;49604;-65
2022/04/27 05:34:33;;;;;;;;;45.00;40.00;;;;;7.97;73.71;102072.50;5032708;28;49812;-66
2022/04/27 05:36:58;;;;;;;;;41.50;36.50;;;;;7.86;74.21;102052.75;5029857;28;49872;-66
2022/04/27 05:39:24;;;;;;;;;31.50;29.00;;;;;8.02;73.59;102063.19;5030615;28;50721;-72
2022/04/27 05:41:51;;;;;;;;;44.25;39.25;;;;;8.23;73.73;102097.41;5034571;28;49602;-63
2022/04/27 05:44:22;;;;;;;;;44.50;38.25;;;;;8.23;73.78;102081.72;5033992;28;50116;-63
2022/04/27 05:46:51;;;;;;;;;38.00;32.00;;;;;8.33;73.48;102104.00;5041767;28;49450;-65
2022/04/27 05:49:17;;;;;;;;;45.25;37.50;;;;;8.37;72.58;102095.53;5030785;28;50562;-64
2022/04/27 05:51:43;;;;;;;;;45.75;40.00;;;;;8.42;73.29;102108.84;5030459;28;49853;-64
2022/04/27 05:54:09;;;;;;;;;43.00;33.50;;;;;8.23;72.39;102065.13;5030853;28;49626;-65
2022/04/27 05:56:35;;;;;;;;;40.75;34.75;;;;;8.38;72.40;102089.47;5038338;28;49738;-64
2022/04/27 05:59:01;;;;;;;;;42.50;40.00;;;;;8.47;73.17;102108.25;5032380;28;49800;-63
2022/04/27 06:01:28;;;;;;;;;41.00;38.25;;;;;8.47;72.07;102097.78;5037635;28;49742;-63
2022/04/27 06:03:53;;;;;;;;;30.75;30.75;;;;;8.67;71.82;102124.06;5029431;28;49588;-64
2022/04/27 06:06:20;;;;;;;;;47.75;41.25;;;;;8.64;71.83;102113.44;5032436;28;49769;-64
2022/04/27 06:08:46;;;;;;;;;44.75;38.50;;;;;8.51;71.89;102098.84;5024841;28;51106;-67
2022/04/27 06:11:11;;;;;;;;;24.25;23.25;;;;;8.78;71.79;102128.09;5007298;28;50184;-65
2022/04/27 06:13:37;;;;;;;;;41.25;37.25;;;;;8.54;71.71;102084.19;5024569;28;49649;-66
2022/04/27 06:16:02;;;;;;;;;40.50;36.00;;;;;8.58;71.67;102088.75;5025258;28;49996;-65
2022/04/27 06:18:28;;;;;;;;;41.50;36.00;;;;;8.09;71.05;101992.88;5028562;28;50921;-66
2022/04/27 06:20:53;;;;;;;;;39.50;35.25;;;;;8.80;71.10;102134.34;5008442;28;49627;-65
2022/04/27 06:23:19;;;;;;;;;47.00;39.25;;;;;8.68;71.65;102108.41;5025846;28;49717;-66
2022/04/27 06:25:49;;;;;;;;;42.00;36.25;;;;;8.87;71.23;102144.28;5027365;28;49656;-66
2022/04/27 06:28:17;;;;;;;;;40.75;37.50;;;;;8.74;71.43;102111.34;5034637;28;50520;-63
2022/04/27 06:30:43;;;;;;;;;45.50;37.00;;;;;8.95;71.31;102135.06;5030189;28;49847;-66
2022/04/27 06:33:08;;;;;;;;;43.75;38.25;;;;;8.87;71.07;102105.88;5030876;28;49825;-68
2022/04/27 06:35:34;;;;;;;;;35.25;28.50;;;;;8.97;70.65;102122.94;5039521;28;49565;-65
2022/04/27 06:38:00;;;;;;;;;43.75;38.00;;;;;9.13;69.96;102138.59;5031861;28;50683;-65
2022/04/27 06:40:26;;;;;;;;;45.50;39.75;;;;;9.36;70.03;102151.91;5038877;28;49881;-65
2022/04/27 06:42:53;;;;;;;;;40.75;37.00;;;;;9.26;69.90;102115.59;5040559;28;49622;-65
2022/04/27 06:45:19;;;;;;;;;40.00;37.00;;;;;9.26;69.76;102126.06;5038447;28;49663;-66
2022/04/27 06:47:45;;;;;;;;;50.00;41.25;;;;;9.43;69.59;102143.50;5032114;28;49772;-65
2022/04/27 06:50:13;;;;;;;;;32.00;30.50;;;;;9.54;69.70;102158.00;5036348;28;49794;-65
2022/04/27 06:52:43;;;;;;;;;47.50;39.25;;;;;9.24;69.21;102109.41;5030412;28;49913;-65
2022/04/27 06:55:10;;;;;;;;;41.75;35.75;;;;;9.56;68.89;102156.38;5033995;28;49867;-67
2022/04/27 06:57:36;;;;;;;;;47.00;39.50;;;;;9.31;69.49;102128.09;5025138;28;49749;-65
2022/04/27 07:00:04;;;;;;;;;38.75;36.00;;;;;9.46;69.33;102157.69;5033542;28;49893;-64
2022/04/27 07:02:30;;;;;;;;;48.50;40.00;;;;;9.43;69.12;102152.28;5033622;28;50372;-65
2022/04/27 07:05:01;;;;;;;;;49.50;38.00;;;;;9.56;68.61;102148.53;5036649;28;50055;-64
2022/04/27 07:07:28;;;;;;;;;49.50;39.75;;;;;9.43;69.09;102133.91;5033598;28;50751;-65
2022/04/27 07:09:54;;;;;;;;;41.00;39.00;;;;;9.61;68.17;102165.34;5010806;28;49811;-64
2022/04/27 07:12:20;;;;;;;;;55.75;40.25;;;;;9.67;68.46;102173.53;5029417;28;49745;-64
2022/04/27 07:14:46;;;;;;;;;51.50;40.75;;;;;9.65;68.28;102175.19;5035083;28;49599;-65
2022/04/27 07:17:12;;;;;;;;;39.00;36.00;;;;;9.61;68.86;102154.88;5035975;28;49964;-65
2022/04/27 07:19:38;;;;;;;;;52.50;41.50;;;;;9.65;68.41;102163.75;5033482;28;49783;-66
2022/04/27 07:22:05;;;;;;;;;44.50;37.75;;;;;9.78;68.42;102174.00;5021229;28;50015;-65
2022/04/27 07:24:30;;;;;;;;;45.00;39.25;;;;;9.64;69.11;102154.09;5033074;28;49805;-65
2022/04/27 07:26:56;;;;;;;;;46.50;38.50;;;;;9.82;68.46;102177.66;5032677;28;49724;-65
2022/04/27 07:29:22;;;;;;;;;51.25;41.00;;;;;9.98;68.53;102177.56;5035125;28;49839;-61
2022/04/27 07:31:48;;;;;;;;;49.75;41.50;;;;;9.92;67.64;102156.28;5045306;28;50013;-65
2022/04/27 07:34:13;;;;;;;;;50.75;40.25;;;;;9.92;68.07;102140.53;5033947;28;49718;-67
2022/04/27 07:36:39;;;;;;;;;50.50;39.75;;;;;10.02;67.79;102171.59;5036605;28;50379;-67
2022/04/27 07:39:05;;;;;;;;;40.75;38.25;;;;;10.14;67.83;102184.41;5034821;28;49669;-67
2022/04/27 07:41:32;;;;;;;;;50.00;38.75;;;;;10.24;67.40;102170.91;5030631;28;50075;-65
2022/04/27 07:43:57;;;;;;;;;42.75;38.75;;;;;10.31;67.54;102181.72;5033101;28;49645;-65
2022/04/27 07:46:23;;;;;;;;;52.00;38.75;;;;;10.41;67.65;102169.00;5032483;28;50580;-65
2022/04/27 07:48:51;;;;;;;;;53.25;38.00;;;;;10.39;67.09;102171.56;5032940;28;49585;-65
2022/04/27 07:51:17;;;;;;;;;45.00;37.00;;;;;10.42;67.18;102190.09;5038424;28;49891;-66
2022/04/27 07:53:43;;;;;;;;;50.75;41.75;;;;;10.43;67.54;102188.38;5032878;28;49622;-65
2022/04/27 07:56:08;;;;;;;;;47.25;39.25;;;;;10.33;66.41;102145.06;5034847;28;50652;-66
2022/04/27 07:58:34;;;;;;;;;47.00;37.75;;;;;10.48;66.30;102163.19;5033623;28;49927;-66
2022/04/27 08:01:01;;;;;;;;;48.00;38.00;;;;;10.61;66.97;102173.38;5031309;28;49817;-64
2022/04/27 08:03:26;;;;;;;;;41.25;38.50;;;;;10.62;66.26;102155.94;5031642;28;49979;-61
2022/04/27 08:05:52;;;;;;;;;46.50;39.25;;;;;10.84;66.14;102183.16;5031942;28;50505;-65
2022/04/27 08:08:18;;;;;;;;;49.75;42.75;;;;;10.81;65.94;102172.53;5031717;28;50053;-68
2022/04/27 08:10:43;;;;;;;;;49.25;40.25;;;;;10.82;66.09;102174.31;5032368;28;49748;-75
2022/04/27 08:13:09;;;;;;;;;51.00;40.25;;;;;10.95;65.62;102187.97;5030904;28;49972;-67
2022/04/27 08:15:35;;;;;;;;;33.00;30.50;;;;;10.70;65.95;102128.22;5032070;28;51299;-67
2022/04/27 08:18:06;;;;;;;;;42.50;36.00;;;;;11.05;65.63;102180.53;5031934;28;49972;-67
2022/04/27 08:23:20;;;;;;;;;40.50;38.00;;;;;11.21;65.46;102186.41;5030481;28;49655;-67
2022/04/27 08:25:46;;;;;;;;;45.00;35.75;;;;;11.16;65.67;102167.81;5012293;28;52443;-67
2022/04/27 08:28:12;;;;;;;;;50.50;39.00;;;;;11.20;65.56;102161.88;5032146;28;49730;-66
2022/04/27 08:30:40;;;;;;;;;48.50;37.25;;;;;11.40;65.56;102176.72;5032332;28;49841;-66
2022/04/27 08:33:07;;;;;;;;;54.50;41.50;;;;;11.63;65.31;102193.38;5032343;28;49749;-67
2022/04/27 08:35:33;;;;;;;;;50.00;40.00;;;;;11.56;65.09;102178.19;5032004;28;50526;-67
2022/04/27 08:38:00;;;;;;;;;46.75;39.00;;;;;11.64;65.21;102189.91;5031790;28;50025;-67
2022/04/27 08:40:26;;;;;;;;;48.75;39.25;;;;;11.71;64.73;102176.16;5031586;28;49873;-67
2022/04/27 08:42:52;;;;;;;;;47.00;38.50;;;;;11.79;64.65;102172.94;5032285;28;49746;-67
2022/04/27 08:45:17;;;;;;;;;43.75;38.50;;;;;11.97;63.97;102207.88;5031890;28;50749;-67
2022/04/27 08:47:47;;;;;;;;;47.00;41.00;;;;;12.00;64.43;102194.84;5031687;28;49803;-67
2022/04/27 08:50:14;;;;;;;;;50.00;39.50;;;;;11.99;64.29;102182.53;5032184;28;50083;-67
2022/04/27 08:52:41;;;;;;;;;43.25;37.50;;;;;12.10;64.17;102183.81;5031941;28;49713;-67
2022/04/27 08:55:08;;;;;;;;;45.75;37.25;;;;;12.23;64.43;102198.31;5031739;28;49874;-67
2022/04/27 08:57:34;;;;;;;;;50.50;41.50;;;;;12.16;63.67;102164.69;5031848;28;49831;-67
2022/04/27 08:59:59;;;;;;;;;53.75;44.75;;;;;12.13;63.23;102161.97;5031735;28;49775;-67
2022/04/27 09:02:28;;;;;;;;;47.00;37.25;;;;;12.32;63.83;102182.84;5031259;28;49875;-72
2022/04/27 09:05:15;;;;;;;;;45.25;39.50;;;;;11.93;63.36;102098.97;5030424;28;49984;-64
2022/04/27 09:07:42;;;;;;;;;48.00;39.50;;;;;12.57;63.04;102190.81;5029984;28;49801;-66
2022/04/27 09:10:12;;;;;;;;;49.25;40.50;;;;;12.48;62.93;102166.75;5028429;28;50063;-64
2022/04/27 09:12:53;;;;;;;;;27.50;26.25;;;;;12.68;63.14;102190.28;5031106;28;49853;-63
2022/04/27 09:15:28;;;;;;;;;48.25;41.00;;;;;12.63;63.40;102168.13;5030189;28;49837;-63
2022/04/27 09:20:46;;;;;;;;;36.00;34.50;;;;;12.92;62.75;102192.84;5029459;28;49627;-67
2022/04/27 09:23:25;;;;;;;;;46.00;38.25;;;;;12.90;62.82;102166.44;5026859;28;50048;-67
2022/04/27 09:25:55;;;;;;;;;48.25;39.00;;;;;13.18;62.33;102187.59;5031294;28;50659;-67
2022/04/27 09:28:23;;;;;;;;;46.00;39.00;;;;;13.10;61.40;102183.81;5031404;28;49812;-73
2022/04/27 09:30:50;;;;;;;;;45.25;38.50;;;;;13.17;61.26;102191.09;5031444;28;50056;-66
2022/04/27 09:33:36;;;;;;;;;45.75;40.25;;;;;13.22;61.66;102193.94;5031419;28;50048;-64
2022/04/27 09:36:22;;;;;;;;;52.75;40.75;;;;;13.26;61.77;102180.00;5030621;28;51660;-69
2022/04/27 09:38:47;;;;;;;;;48.25;41.25;;;;;13.31;61.65;102186.28;5026826;28;49681;-70
2022/04/27 09:41:13;;;;;;;;;39.75;35.75;;;;;13.55;62.14;102190.56;5028589;28;49827;-68
2022/04/27 09:43:43;;;;;;;;;52.25;40.00;;;;;13.68;61.22;102190.97;5031296;28;49827;-70
2022/04/27 09:46:25;;;;;;;;;41.00;36.25;;;;;13.72;61.69;102189.34;5019380;28;52373;-69
2022/04/27 09:49:09;;;;;;;;;51.50;41.00;;;;;13.77;61.11;102186.84;5028215;28;49799;-69
2022/04/27 09:51:50;;;;;;;;;46.75;40.00;;;;;13.72;60.70;102177.06;5011646;28;49900;-69
2022/04/27 09:54:24;;;;;;;;;50.00;38.50;;;;;13.72;60.49;102153.31;5005728;28;49930;-69
2022/04/27 09:56:55;;;;;;;;;39.25;36.75;;;;;13.90;59.59;102158.25;5027827;28;51595;-69
2022/04/27 09:59:31;;;;;;;;;46.25;40.50;;;;;13.98;59.51;102169.00;5026570;28;49697;-69
2022/04/27 10:02:04;;;;;;;;;47.50;41.75;;;;;13.53;60.03;102078.81;5032846;28;49800;-69
2022/04/27 10:04:30;;;;;;;;;52.75;41.75;;;;;14.06;59.50;102175.41;5030962;28;49899;-69
2022/04/27 10:07:01;;;;;;;;;43.75;39.00;;;;;13.73;59.65;102109.31;5030576;28;50450;-69
2022/04/27 10:09:28;;;;;;;;;52.50;41.25;;;;;14.10;59.49;102164.09;5030323;28;49714;-70
2022/04/27 10:12:01;;;;;;;;;45.75;39.00;;;;;14.03;60.08;102152.44;5030541;28;50017;-69
2022/04/27 10:14:27;;;;;;;;;54.25;44.50;;;;;14.23;59.90;102163.56;5030761;28;49635;-70
2022/04/27 10:16:54;;;;;;;;;50.75;42.50;;;;;14.04;58.97;102112.00;5030441;28;50682;-70
2022/04/27 10:19:20;;;;;;;;;53.00;39.50;;;;;14.32;59.16;102152.38;5030493;28;50447;-70
2022/04/27 10:21:57;;;;;;;;;47.25;40.50;;;;;14.41;58.70;102144.69;5030587;28;49825;-69
2022/04/27 10:24:37;;;;;;;;;47.25;38.50;;;;;14.49;59.66;102139.66;5030216;28;49995;-69
2022/04/27 10:27:18;;;;;;;;;50.25;40.00;;;;;14.65;58.70;102139.19;5023759;28;51013;-69
2022/04/27 10:29:46;;;;;;;;;48.00;38.25;;;;;14.58;58.49;102113.47;5031811;28;49909;-76
2022/04/27 10:32:11;;;;;;;;;39.75;36.75;;;;;14.60;58.70;102107.38;5012566;28;49894;-73
2022/04/27 10:34:37;;;;;;;;;47.00;38.75;;;;;14.83;57.91;102133.47;5012077;28;49986;-67
2022/04/27 10:37:03;;;;;;;;;51.25;40.00;;;;;14.83;57.68;102107.94;5030347;28;49915;-71
2022/04/27 10:39:33;;;;;;;;;47.75;38.75;;;;;14.81;57.07;102116.69;5030353;28;49856;-68
2022/04/27 10:42:04;;;;;;;;;44.75;37.25;;;;;14.98;57.40;102112.72;5029636;28;49892;-72
2022/04/27 10:44:49;;;;;;;;;45.25;38.75;;;;;15.07;57.41;102106.75;5014999;28;49782;-69
2022/04/27 10:47:18;;;;;;;;;44.00;35.25;;;;;15.04;56.50;102094.34;5029951;28;49763;-69
2022/04/27 10:49:46;;;;;;;;;43.75;37.75;;;;;15.15;57.09;102102.53;5029417;28;50322;-69
2022/04/27 10:52:13;;;;;;;;;47.00;40.25;;;;;15.05;56.51;102060.84;5030019;28;49814;-70
2022/04/27 10:54:40;;;;;;;;;39.50;36.00;;;;;15.29;56.79;102102.84;5029673;28;49947;-74
2022/04/27 10:57:15;;;;;;;;;41.00;35.50;;;;;15.41;56.43;102113.72;5029484;28;50596;-71
2022/04/27 10:59:56;;;;;;;;;41.75;35.75;;;;;15.48;55.96;102098.88;5029532;28;49930;-73
2022/04/27 11:02:39;;;;;;;;;34.75;32.25;;;;;15.58;54.29;102106.16;5029827;28;49800;-66
2022/04/27 11:05:10;;;;;;;;;39.50;35.50;;;;;15.71;54.50;102089.69;5025061;28;49741;-72
2022/04/27 11:07:40;;;;;;;;;37.25;35.25;;;;;15.93;54.15;102099.88;5030205;28;49913;-65
2022/04/27 11:10:17;;;;;;;;;39.75;31.00;;;;;16.15;53.42;102095.88;5029793;28;49909;-67
2022/04/27 11:12:46;;;;;;;;;38.00;35.00;;;;;16.35;52.23;102088.31;5029547;28;49914;-67
2022/04/27 11:15:34;;;;;;;;;33.00;32.50;;;;;16.65;51.50;102087.94;5022696;28;50265;-63
2022/04/27 11:18:02;;;;;;;;;34.25;27.25;;;;;16.94;49.42;102074.31;5023646;28;49963;-66
2022/04/27 11:20:39;;;;;;;;;29.50;28.50;;;;;17.02;48.90;102092.13;5023322;28;49790;-66
2022/04/27 11:23:09;;;;;;;;;21.75;18.50;;;;;16.78;48.17;102073.16;5029908;28;49758;-66
2022/04/27 11:25:37;;;;;;;;;31.50;30.25;;;;;16.78;49.01;102091.72;5012923;28;50156;-67
2022/04/27 11:28:06;;;;;;;;;44.75;36.25;;;;;16.73;47.89;102086.34;5035614;28;50861;-67
2022/04/27 11:30:32;;;;;;;;;40.25;35.50;;;;;16.84;48.42;102070.63;5045366;28;50329;-66
2022/04/27 11:32:58;;;;;;;;;33.25;31.00;;;;;16.90;47.22;102065.41;5046280;28;49450;-68
2022/04/27 11:35:25;;;;;;;;;41.00;35.25;;;;;16.90;46.92;102043.31;5036374;28;49821;-67
2022/04/27 11:37:55;;;;;;;;;38.75;33.25;;;;;17.22;46.57;102073.84;5029168;28;50429;-68
2022/04/27 11:40:27;;;;;;;;;35.50;31.75;;;;;17.29;45.93;102059.81;5034956;28;49717;-68